createdAt,value
2017-12-16T00:01:36.518Z,14.10
2017-12-16T00:04:05.651Z,14.67
2017-12-16T00:06:34.173Z,15.73
2017-12-16T00:09:02.589Z,15.47
2017-12-16T00:11:31.698Z,14.40
2017-12-16T00:14:00.026Z,15.93
2017-12-16T00:16:28.483Z,15.90
2017-12-16T00:18:57.045Z,14.63
2017-12-16T00:21:25.524Z,15.30
2017-12-16T00:23:53.856Z,16.47
2017-12-16T00:26:22.546Z,15.87
2017-12-16T00:28:50.948Z,16.30
2017-12-16T00:31:19.292Z,15.87
2017-12-16T00:33:47.746Z,15.33
2017-12-16T00:36:16.095Z,15.57
2017-12-16T00:38:44.452Z,16.97
2017-12-16T00:41:13.609Z,18.03
2017-12-16T00:43:41.975Z,19.80
2017-12-16T00:46:10.362Z,17.80
2017-12-16T00:48:38.691Z,16.97
2017-12-16T00:51:07.819Z,17.03
2017-12-16T00:53:36.238Z,17.23
2017-12-16T00:56:04.582Z,17.07
2017-12-16T00:58:32.924Z,17.67
2017-12-16T01:01:02.305Z,17.47
2017-12-16T01:03:30.644Z,18.33
2017-12-16T01:05:58.970Z,17.63
2017-12-16T01:08:27.322Z,17.23
2017-12-16T01:10:55.670Z,17.97
2017-12-16T01:13:24.258Z,17.57
2017-12-16T01:15:52.580Z,19.23
2017-12-16T01:18:21.017Z,19.87
2017-12-16T01:20:49.480Z,18.80
2017-12-16T01:23:18.597Z,20.10
2017-12-16T01:25:46.934Z,20.40
2017-12-16T01:28:16.051Z,21.40
2017-12-16T01:30:45.197Z,22.57
2017-12-16T01:33:13.644Z,20.33
2017-12-16T01:35:54.113Z,21.87
2017-12-16T01:38:34.187Z,21.37
2017-12-16T01:41:02.550Z,19.87
2017-12-16T01:43:31.537Z,21.87
2017-12-16T01:45:59.872Z,22.37
2017-12-16T01:48:28.232Z,22.70
2017-12-16T01:50:56.567Z,22.07
2017-12-16T01:53:24.907Z,22.47
2017-12-16T01:55:53.250Z,23.27
2017-12-16T01:58:21.864Z,21.30
2017-12-16T02:00:50.213Z,23.60
2017-12-16T02:03:18.570Z,24.27
2017-12-16T02:05:46.945Z,24.83
2017-12-16T02:08:16.027Z,23.03
2017-12-16T02:10:44.411Z,24.07
2017-12-16T02:13:12.761Z,24.37
2017-12-16T02:15:41.184Z,25.10
2017-12-16T02:18:09.578Z,26.87
2017-12-16T02:20:38.014Z,25.47
2017-12-16T02:23:06.429Z,28.27
2017-12-16T02:25:34.811Z,27.93
2017-12-16T02:28:03.160Z,25.73
2017-12-16T02:30:32.265Z,27.50
2017-12-16T02:33:01.368Z,27.23
2017-12-16T02:35:29.721Z,28.07
2017-12-16T02:37:58.824Z,28.57
2017-12-16T02:40:27.966Z,26.90
2017-12-16T02:42:56.330Z,26.43
2017-12-16T02:45:24.713Z,28.07
2017-12-16T02:47:53.085Z,27.07
2017-12-16T02:50:21.431Z,27.40
2017-12-16T02:52:50.574Z,26.60
2017-12-16T02:55:18.905Z,28.33
2017-12-16T02:57:48.018Z,27.63
2017-12-16T03:02:51.957Z,27.63
2017-12-16T03:05:20.343Z,27.50
2017-12-16T03:07:48.726Z,26.13
2017-12-16T03:10:17.060Z,28.70
2017-12-16T03:12:45.414Z,26.83
2017-12-16T03:15:14.080Z,26.13
2017-12-16T03:17:42.428Z,27.13
2017-12-16T03:20:10.805Z,27.40
2017-12-16T03:22:39.896Z,28.30
2017-12-16T03:25:09.132Z,26.30
2017-12-16T03:27:37.464Z,27.37
2017-12-16T03:30:06.574Z,24.83
2017-12-16T03:32:35.808Z,27.97
2017-12-16T03:35:04.147Z,26.57
2017-12-16T03:37:33.261Z,25.83
2017-12-16T03:40:01.647Z,27.47
2017-12-16T03:42:30.336Z,26.00
2017-12-16T03:44:58.967Z,27.83
2017-12-16T03:47:27.422Z,25.63
2017-12-16T03:49:55.759Z,27.20
2017-12-16T03:52:24.873Z,27.07
2017-12-16T03:54:53.237Z,28.67
2017-12-16T03:57:21.584Z,27.50
2017-12-16T03:59:49.948Z,27.70
2017-12-16T04:02:18.288Z,29.73
2017-12-16T04:04:46.637Z,29.93
2017-12-16T04:07:15.743Z,29.20
2017-12-16T04:09:44.853Z,30.70
2017-12-16T04:12:13.218Z,32.00
2017-12-16T04:14:42.336Z,32.27
2017-12-16T04:17:10.731Z,31.50
2017-12-16T04:19:39.068Z,30.20
2017-12-16T04:22:08.167Z,29.37
2017-12-16T04:24:37.292Z,30.37
2017-12-16T04:27:05.616Z,31.47
2017-12-16T04:29:34.061Z,29.07
2017-12-16T04:32:02.400Z,29.87
2017-12-16T04:34:31.600Z,27.73
2017-12-16T04:37:00.888Z,28.40
2017-12-16T04:39:30.007Z,27.27
2017-12-16T04:41:59.299Z,26.23
2017-12-16T04:44:27.654Z,26.53
2017-12-16T04:46:56.081Z,26.43
2017-12-16T04:49:24.456Z,25.27
2017-12-16T04:51:52.819Z,24.97
2017-12-16T04:54:21.220Z,26.77
2017-12-16T04:56:49.580Z,25.57
2017-12-16T04:59:17.947Z,23.77
2017-12-16T05:01:47.076Z,25.27
2017-12-16T05:04:15.555Z,24.00
2017-12-16T05:06:43.940Z,24.50
2017-12-16T05:09:12.275Z,23.03
2017-12-16T05:11:41.396Z,24.20
2017-12-16T05:14:09.733Z,24.60
2017-12-16T05:16:38.093Z,25.10
2017-12-16T05:19:06.420Z,23.63
2017-12-16T05:21:35.553Z,23.47
2017-12-16T05:24:03.891Z,24.70
2017-12-16T05:26:33.032Z,25.17
2017-12-16T05:29:01.476Z,24.77
2017-12-16T05:31:29.872Z,23.90
2017-12-16T05:33:58.215Z,24.50
2017-12-16T05:36:27.352Z,23.57
2017-12-16T05:38:56.147Z,24.57
2017-12-16T05:41:24.480Z,22.73
2017-12-16T05:43:53.609Z,25.43
2017-12-16T05:46:22.003Z,23.63
2017-12-16T05:48:50.376Z,23.43
2017-12-16T05:51:18.736Z,25.20
2017-12-16T05:53:47.867Z,23.77
2017-12-16T05:56:16.231Z,24.07
2017-12-16T05:58:44.667Z,22.33
2017-12-16T06:01:13.012Z,24.03
2017-12-16T06:03:41.354Z,23.23
2017-12-16T06:06:09.698Z,22.60
2017-12-16T06:08:38.124Z,24.47
2017-12-16T06:11:07.047Z,23.27
2017-12-16T06:13:35.501Z,23.27
2017-12-16T06:16:03.834Z,22.17
2017-12-16T06:18:32.939Z,23.23
2017-12-16T06:21:02.085Z,23.67
2017-12-16T06:23:30.421Z,25.07
2017-12-16T06:25:58.897Z,25.77
2017-12-16T06:28:27.219Z,26.67
2017-12-16T06:30:55.595Z,26.37
2017-12-16T06:33:24.037Z,24.67
2017-12-16T06:35:52.565Z,22.63
2017-12-16T06:38:20.915Z,22.40
2017-12-16T06:40:49.272Z,23.87
2017-12-16T06:43:17.829Z,23.43
2017-12-16T06:45:46.746Z,25.33
2017-12-16T06:48:15.471Z,24.57
2017-12-16T06:50:43.853Z,23.33
2017-12-16T06:53:12.188Z,24.87
2017-12-16T06:55:41.328Z,25.53
2017-12-16T06:58:09.872Z,27.73
2017-12-16T07:00:38.992Z,28.23
2017-12-16T07:03:07.339Z,27.87
2017-12-16T07:05:35.715Z,28.60
2017-12-16T07:08:04.364Z,27.03
2017-12-16T07:10:32.687Z,28.80
2017-12-16T07:13:01.798Z,28.37
2017-12-16T07:15:30.135Z,29.63
2017-12-16T07:17:58.487Z,26.10
2017-12-16T07:20:26.819Z,27.43
2017-12-16T07:22:55.927Z,27.87
2017-12-16T07:25:25.027Z,27.83
2017-12-16T07:27:54.131Z,28.80
2017-12-16T07:30:22.486Z,28.23
2017-12-16T07:32:50.830Z,29.13
2017-12-16T07:35:19.297Z,26.37
2017-12-16T07:37:47.775Z,27.43
2017-12-16T07:40:16.121Z,29.30
2017-12-16T07:42:45.425Z,27.57
2017-12-16T07:45:13.952Z,27.23
2017-12-16T07:47:42.533Z,27.00
2017-12-16T07:50:11.650Z,31.47
2017-12-16T07:52:40.009Z,29.53
2017-12-16T07:55:08.357Z,29.73
2017-12-16T07:57:36.688Z,27.20
2017-12-16T08:00:05.030Z,29.60
2017-12-16T08:02:33.570Z,27.57
2017-12-16T08:05:01.910Z,29.33
2017-12-16T08:07:30.263Z,27.70
2017-12-16T08:09:58.620Z,28.53
2017-12-16T08:12:27.054Z,28.27
2017-12-16T08:14:55.448Z,25.90
2017-12-16T08:17:23.778Z,27.77
2017-12-16T08:19:52.164Z,26.33
2017-12-16T08:22:20.541Z,26.70
2017-12-16T08:24:48.913Z,27.13
2017-12-16T08:27:17.268Z,26.47
2017-12-16T08:29:46.370Z,26.50
2017-12-16T08:32:14.712Z,25.13
2017-12-16T08:34:43.076Z,24.07
2017-12-16T08:37:11.415Z,24.90
2017-12-16T09:21:02.180Z,16.83
2017-12-16T09:23:30.692Z,18.30
2017-12-16T09:25:59.030Z,18.87
2017-12-16T09:28:27.359Z,18.83
2017-12-16T09:30:55.819Z,20.73
2017-12-16T09:33:24.154Z,19.27
2017-12-16T09:35:52.500Z,18.13
2017-12-16T09:38:21.036Z,19.43
2017-12-16T09:40:49.387Z,20.37
2017-12-16T09:43:17.760Z,19.57
2017-12-16T09:45:46.092Z,19.53
2017-12-16T09:48:15.203Z,18.70
2017-12-16T09:50:43.593Z,18.07
2017-12-16T09:53:12.688Z,18.53
2017-12-16T09:55:41.027Z,16.13
2017-12-16T09:58:09.463Z,17.20
2017-12-16T10:00:37.809Z,17.13
2017-12-16T10:03:06.924Z,16.57
2017-12-16T10:05:35.380Z,17.87
2017-12-16T10:08:04.475Z,17.50
2017-12-16T10:10:32.828Z,17.53
2017-12-16T10:13:01.176Z,17.13
2017-12-16T10:15:29.507Z,17.80
2017-12-16T10:17:58.625Z,16.20
2017-12-16T10:20:26.969Z,17.27
2017-12-16T10:22:55.482Z,17.83
2017-12-16T10:25:23.871Z,18.83
2017-12-16T10:27:52.228Z,17.83
2017-12-16T10:30:21.343Z,17.17
2017-12-16T10:32:49.670Z,17.07
2017-12-16T10:35:18.036Z,16.80
2017-12-16T10:37:46.382Z,16.73
2017-12-16T10:40:14.721Z,17.67
2017-12-16T10:42:43.921Z,19.03
2017-12-16T10:45:13.056Z,17.90
2017-12-16T10:47:41.399Z,16.60
2017-12-16T10:50:10.515Z,15.80
2017-12-16T10:52:38.879Z,16.13
2017-12-16T10:55:08.076Z,16.47
2017-12-16T10:57:37.214Z,15.27
2017-12-16T11:00:05.591Z,16.57
2017-12-16T11:02:34.166Z,16.50
2017-12-16T11:05:02.497Z,15.40
2017-12-16T11:07:30.829Z,17.20
2017-12-16T11:09:59.203Z,16.30
2017-12-16T11:12:27.541Z,16.73
2017-12-16T11:14:56.652Z,15.33
2017-12-16T11:17:25.007Z,15.37
2017-12-16T11:19:53.438Z,15.47
2017-12-16T11:22:21.794Z,14.97
2017-12-16T11:24:50.219Z,16.27
2017-12-16T11:27:18.698Z,16.47
2017-12-16T11:29:47.043Z,16.47
2017-12-16T11:32:15.379Z,15.43
2017-12-16T11:34:43.713Z,16.73
2017-12-16T11:37:12.090Z,15.63
2017-12-16T11:39:41.185Z,14.57
2017-12-16T11:42:09.567Z,13.40
2017-12-16T11:44:37.929Z,14.80
2017-12-16T11:47:06.281Z,13.03
2017-12-16T11:49:34.665Z,12.77
2017-12-16T11:52:03.844Z,12.60
2017-12-16T11:54:32.304Z,13.63
2017-12-16T11:57:00.645Z,13.27
2017-12-16T11:59:28.986Z,11.10
2017-12-16T12:01:57.441Z,11.37
2017-12-16T12:04:25.781Z,11.23
2017-12-16T12:06:54.888Z,9.80
2017-12-16T12:09:23.242Z,10.87
2017-12-16T12:11:52.474Z,10.83
2017-12-16T12:14:20.820Z,10.50
2017-12-16T12:16:49.913Z,9.60
2017-12-16T12:19:19.980Z,10.00
2017-12-16T12:21:48.290Z,10.27
2017-12-16T12:24:16.645Z,10.27
2017-12-16T12:26:44.989Z,8.80
2017-12-16T12:29:13.347Z,9.17
2017-12-16T12:31:42.452Z,9.40
2017-12-16T12:34:11.554Z,8.57
2017-12-16T12:36:39.913Z,9.47
2017-12-16T12:39:08.220Z,9.43
2017-12-16T12:41:36.569Z,8.40
2017-12-16T12:44:04.911Z,9.03
2017-12-16T12:46:33.264Z,8.77
2017-12-16T12:49:01.595Z,8.70
2017-12-16T12:51:29.931Z,8.60
2017-12-16T12:53:58.263Z,9.50
2017-12-16T12:56:26.605Z,7.83
2017-12-16T12:58:54.956Z,8.87
2017-12-16T13:01:23.294Z,8.27
2017-12-16T13:03:51.804Z,7.67
2017-12-16T13:06:20.885Z,7.60
2017-12-16T13:08:49.988Z,7.37
2017-12-16T13:11:19.222Z,6.83
2017-12-16T13:13:47.550Z,7.63
2017-12-16T13:16:16.676Z,7.13
2017-12-16T13:18:45.008Z,6.30
2017-12-16T13:21:13.455Z,7.60
2017-12-16T13:23:41.926Z,6.37
2017-12-16T13:26:10.258Z,6.47
2017-12-16T13:28:38.614Z,6.77
2017-12-16T13:31:06.971Z,6.17
2017-12-16T13:33:35.645Z,7.10
2017-12-16T13:36:03.984Z,6.23
2017-12-16T13:38:33.227Z,5.80
2017-12-16T13:41:01.570Z,4.83
2017-12-16T13:43:30.696Z,5.03
2017-12-16T13:45:59.045Z,5.27
2017-12-16T13:48:28.155Z,7.60
2017-12-16T13:50:56.561Z,5.00
2017-12-16T13:53:24.932Z,5.73
2017-12-16T13:55:53.393Z,5.17
2017-12-16T13:58:22.672Z,4.67
2017-12-16T14:00:51.261Z,4.47
2017-12-16T14:03:19.592Z,4.33
2017-12-16T14:05:47.943Z,4.30
2017-12-16T14:08:16.335Z,4.40
2017-12-16T14:10:44.664Z,5.00
2017-12-16T14:13:13.017Z,4.30
2017-12-16T14:15:41.342Z,4.60
2017-12-16T14:18:09.771Z,3.93
2017-12-16T14:20:38.112Z,3.73
2017-12-16T14:23:06.447Z,4.30
2017-12-16T14:25:34.788Z,4.30
2017-12-16T14:28:03.141Z,5.33
2017-12-16T14:30:31.546Z,5.20
2017-12-16T14:32:59.908Z,4.60
2017-12-16T14:35:28.984Z,3.67
2017-12-16T14:37:57.320Z,3.07
2017-12-16T14:40:25.644Z,3.80
2017-12-16T14:42:54.757Z,3.30
2017-12-16T14:45:23.078Z,3.20
2017-12-16T14:47:51.428Z,3.73
2017-12-16T14:50:19.769Z,4.50
2017-12-16T14:52:48.867Z,4.63
2017-12-16T14:55:18.064Z,3.63
2017-12-16T14:57:46.395Z,4.13
2017-12-16T15:00:14.975Z,4.00
2017-12-16T15:02:43.295Z,4.13
2017-12-16T15:05:11.629Z,4.47
2017-12-16T15:07:39.977Z,3.20
2017-12-16T15:10:08.400Z,3.43
2017-12-16T15:12:36.776Z,3.37
2017-12-16T15:15:05.100Z,4.03
2017-12-16T15:17:34.942Z,3.53
2017-12-16T15:20:03.326Z,3.63
2017-12-16T15:22:31.701Z,2.67
2017-12-16T15:25:00.033Z,3.50
2017-12-16T15:27:28.411Z,3.03
2017-12-16T15:29:56.801Z,3.23
2017-12-16T15:32:25.152Z,4.33
2017-12-16T15:34:53.595Z,3.20
2017-12-16T15:37:21.964Z,4.37
2017-12-16T15:39:50.287Z,3.53
2017-12-16T15:42:18.638Z,2.93
2017-12-16T15:44:47.015Z,3.63
2017-12-16T15:47:15.355Z,3.20
2017-12-16T15:49:44.466Z,3.63
2017-12-16T15:52:13.728Z,3.10
2017-12-16T15:54:42.068Z,4.00
2017-12-16T15:57:10.427Z,3.50
2017-12-16T15:59:39.699Z,3.20
2017-12-16T16:02:08.028Z,3.70
2017-12-16T16:04:36.372Z,3.57
2017-12-16T16:07:05.520Z,3.80
2017-12-16T16:09:33.873Z,3.77
2017-12-16T16:12:02.262Z,3.57
2017-12-16T16:14:30.590Z,3.70
2017-12-16T16:16:58.927Z,4.17
2017-12-16T16:19:27.266Z,3.60
2017-12-16T16:21:56.470Z,3.53
2017-12-16T16:24:25.568Z,3.87
2017-12-16T16:26:54.689Z,3.53
2017-12-16T16:29:23.096Z,4.17
2017-12-16T16:31:51.530Z,3.63
2017-12-16T16:34:19.813Z,3.60
2017-12-16T16:36:48.245Z,3.53
2017-12-16T16:39:16.607Z,3.40
2017-12-16T16:41:44.929Z,3.57
2017-12-16T16:44:14.053Z,3.40
2017-12-16T16:46:42.436Z,3.77
2017-12-16T16:49:11.041Z,3.63
2017-12-16T16:51:39.395Z,4.20
2017-12-16T16:54:07.716Z,4.00
2017-12-16T16:56:36.147Z,4.13
2017-12-16T16:59:04.719Z,4.70
2017-12-16T17:01:33.831Z,4.83
2017-12-16T17:04:02.160Z,6.03
2017-12-16T17:06:30.491Z,4.77
2017-12-16T17:08:58.830Z,5.50
2017-12-16T17:11:27.203Z,4.63
2017-12-16T17:13:55.553Z,5.10
2017-12-16T17:16:23.893Z,5.27
2017-12-16T17:18:52.598Z,5.60
2017-12-16T17:21:20.914Z,4.80
2017-12-16T17:23:49.246Z,5.17
2017-12-16T17:26:17.602Z,4.73
2017-12-16T17:28:46.691Z,5.13
2017-12-16T17:31:15.800Z,5.43
2017-12-16T17:33:44.894Z,4.70
2017-12-16T17:36:13.265Z,4.73
2017-12-16T17:38:42.395Z,5.07
2017-12-16T17:41:11.487Z,4.67
2017-12-16T17:43:39.842Z,4.50
2017-12-16T17:46:08.937Z,4.50
2017-12-16T17:48:38.066Z,4.47
2017-12-16T17:51:06.559Z,4.70
2017-12-16T17:53:34.925Z,4.20
2017-12-16T17:56:03.242Z,4.53
2017-12-16T17:58:31.654Z,4.00
2017-12-16T18:01:00.148Z,4.63
2017-12-16T18:03:29.363Z,4.23
2017-12-16T18:05:58.446Z,3.57
2017-12-16T18:08:26.776Z,4.00
2017-12-16T18:10:55.097Z,4.00
2017-12-16T18:13:23.677Z,4.43
2017-12-16T18:15:52.771Z,4.20
2017-12-16T18:18:21.120Z,3.97
2017-12-16T18:20:49.509Z,4.40
2017-12-16T18:23:18.870Z,3.97
2017-12-16T18:25:47.189Z,3.97
2017-12-16T18:28:15.548Z,4.20
2017-12-16T18:30:43.912Z,4.37
2017-12-16T18:33:12.343Z,4.90
2017-12-16T18:35:40.799Z,4.90
2017-12-16T18:38:09.185Z,4.40
2017-12-16T18:40:37.540Z,4.47
2017-12-16T18:43:05.891Z,5.33
2017-12-16T18:45:34.235Z,5.53
2017-12-16T18:48:02.634Z,4.97
2017-12-16T18:50:31.250Z,5.87
2017-12-16T18:52:59.634Z,5.10
2017-12-16T18:55:27.973Z,4.80
2017-12-16T18:57:56.839Z,4.53
2017-12-16T19:00:25.350Z,4.70
2017-12-16T19:02:54.452Z,4.53
2017-12-16T19:05:22.801Z,3.47
2017-12-16T19:07:51.901Z,3.07
2017-12-16T19:10:20.256Z,2.97
2017-12-16T19:12:48.577Z,2.80
2017-12-16T19:15:17.361Z,2.20
2017-12-16T19:17:45.825Z,2.40
2017-12-16T19:20:14.264Z,2.67
2017-12-16T19:22:42.616Z,2.90
2017-12-16T19:25:11.107Z,3.90
2017-12-16T19:27:39.448Z,3.23
2017-12-16T19:30:09.184Z,2.70
2017-12-16T19:32:37.554Z,2.20
2017-12-16T19:35:05.884Z,3.10
2017-12-16T19:37:34.262Z,2.70
2017-12-16T19:40:02.586Z,2.57
2017-12-16T19:42:30.930Z,3.07
2017-12-16T19:44:59.304Z,3.40
2017-12-16T19:47:27.658Z,3.43
2017-12-16T19:49:56.014Z,3.30
2017-12-16T19:52:24.371Z,3.80
2017-12-16T19:54:52.742Z,4.10
2017-12-16T19:57:21.106Z,4.23
2017-12-16T19:59:49.752Z,4.50
2017-12-16T20:02:18.440Z,4.53
2017-12-16T20:04:47.227Z,4.30
2017-12-16T20:07:15.915Z,5.27
2017-12-16T20:09:44.609Z,5.27
2017-12-16T20:12:13.492Z,5.07
2017-12-16T20:14:42.180Z,5.57
2017-12-16T20:17:10.866Z,5.90
2017-12-16T20:19:40.595Z,6.03
2017-12-16T20:22:09.266Z,5.63
2017-12-16T20:24:37.953Z,5.50
2017-12-16T20:27:06.840Z,5.40
2017-12-16T20:29:35.739Z,6.00
2017-12-16T20:32:04.727Z,5.97
2017-12-16T20:34:33.516Z,5.67
2017-12-16T20:37:03.030Z,5.10
2017-12-16T20:39:32.034Z,5.67
2017-12-16T20:42:00.903Z,5.20
2017-12-16T20:44:29.593Z,4.83
2017-12-16T20:46:58.378Z,4.93
2017-12-16T20:49:27.174Z,4.17
2017-12-16T20:51:55.956Z,4.73
2017-12-16T20:54:25.978Z,4.63
2017-12-16T20:56:55.480Z,4.33
2017-12-16T20:59:24.288Z,5.20
2017-12-16T21:01:53.764Z,4.37
2017-12-16T21:04:22.770Z,4.37
2017-12-16T21:06:51.765Z,4.50
2017-12-16T21:09:20.966Z,4.30
2017-12-16T21:11:49.855Z,4.40
2017-12-16T21:14:18.758Z,4.30
2017-12-16T21:16:47.531Z,4.43
2017-12-16T21:19:16.321Z,5.30
2017-12-16T21:21:45.211Z,4.67
2017-12-16T21:24:14.212Z,4.80
2017-12-16T21:26:42.651Z,5.43
2017-12-16T21:29:11.820Z,4.50
2017-12-16T21:31:40.175Z,5.43
2017-12-16T21:34:08.585Z,5.70
2017-12-16T21:36:37.071Z,5.70
2017-12-16T21:39:05.498Z,5.40
2017-12-16T21:41:33.885Z,6.43
2017-12-16T21:44:02.253Z,5.53
2017-12-16T21:46:30.790Z,6.00
2017-12-16T21:48:59.744Z,6.57
2017-12-16T21:51:28.089Z,6.60
2017-12-16T21:53:57.205Z,6.17
2017-12-16T21:56:25.570Z,7.27
2017-12-16T21:58:53.915Z,7.30
2017-12-16T22:01:22.285Z,7.30
2017-12-16T22:03:50.688Z,6.97
2017-12-16T22:06:19.798Z,6.43
2017-12-16T22:08:48.184Z,7.13
2017-12-16T22:11:16.526Z,6.63
2017-12-16T22:13:44.960Z,6.50
2017-12-16T22:16:13.443Z,6.27
2017-12-16T22:18:41.926Z,5.33
2017-12-16T22:21:10.279Z,5.47
2017-12-16T22:23:38.615Z,5.47
2017-12-16T22:26:06.947Z,5.80
2017-12-16T22:28:35.341Z,5.47
2017-12-16T22:31:03.700Z,5.00
2017-12-16T22:33:32.044Z,5.57
2017-12-16T22:36:00.485Z,4.80
2017-12-16T22:38:28.824Z,4.93
2017-12-16T22:40:57.954Z,4.97
2017-12-16T22:43:26.303Z,4.70
2017-12-16T22:45:55.395Z,5.00
2017-12-16T22:48:24.489Z,4.43
2017-12-16T22:50:53.626Z,5.27
2017-12-16T22:53:21.957Z,5.03
2017-12-16T22:55:51.039Z,5.77
2017-12-16T22:58:19.375Z,5.27
2017-12-16T23:00:47.740Z,4.87
2017-12-16T23:03:16.076Z,5.10
2017-12-16T23:05:44.631Z,5.60
2017-12-16T23:08:12.985Z,5.63
2017-12-16T23:10:41.314Z,5.60
2017-12-16T23:13:09.668Z,5.20
2017-12-16T23:15:38.006Z,6.13
2017-12-16T23:18:06.352Z,5.20
2017-12-16T23:20:34.767Z,5.27
2017-12-16T23:23:03.251Z,6.13
2017-12-16T23:25:31.592Z,5.33
2017-12-16T23:27:59.929Z,5.37
2017-12-16T23:30:28.263Z,5.27
2017-12-16T23:32:57.365Z,6.13
2017-12-16T23:35:26.487Z,6.03
2017-12-16T23:37:55.724Z,8.03
2017-12-16T23:40:24.059Z,6.67
2017-12-16T23:42:52.394Z,6.90
2017-12-16T23:45:20.822Z,8.50
2017-12-16T23:47:49.160Z,6.47
2017-12-16T23:50:18.300Z,6.43
2017-12-16T23:52:46.652Z,6.53
2017-12-16T23:55:14.976Z,6.63
2017-12-16T23:57:43.652Z,6.90
